Terminal Aerodrome Forecast
Issued by NWS

Home | Current Version | Previous Version | Text Only | Print | Product List | Glossary On
Versions: 1 2 3 4 5 6 7 8 9 10 11 12 13 14 15 16 17 18 19
000
FTUS43 KGLD 271253 AAA
TAFMCK
TAF AMD
KMCK 271253Z 2713/2812 VRB03KT 5SM BR OVC040
      TEMPO 2713/2715 5SM BR
     FM271500 13004KT P6SM SCT007
     FM271700 15008KT P6SM SKC
     FM280000 15008KT P6SM BKN100
     FM281000 18005KT P6SM SCT010=

USA.gov is the U.S. government's official web portal to all federal, state and local government web resources and services.